Terminal Aerodrome Forecast
Issued by NWS Grand Forks, ND

Home | Current Version | Previous Version | Text Only | Print | Product List | Glossary On
Versions: 1 2 3 4 5 6 7 8 9 10 11 12 13
675
FTUS43 KFGF 211734 AAB
TAFFAR
TAF AMD
KFAR 211734Z 2118/2218 28015KT P6SM BKN030 OVC050
     FM220200 24010KT P6SM BKN080
     FM220500 25009KT P6SM SCT070
     FM221700 22010KT P6SM FEW250=

USA.gov is the U.S. government's official web portal to all federal, state and local government web resources and services.